createdAt,value
2023-09-08T03:40:56.919Z,3.97
2023-09-08T03:44:01.835Z,4.03
2023-09-08T03:47:04.734Z,3.85
2023-09-08T03:50:09.570Z,3.80
2023-09-08T03:53:13.608Z,3.50
2023-09-08T03:56:16.715Z,3.78
2023-09-08T03:59:19.403Z,4.15
2023-09-08T04:05:25.154Z,4.17
2023-09-08T04:08:27.746Z,4.57
2023-09-08T04:11:30.920Z,4.05
2023-09-08T04:14:35.149Z,3.58
2023-09-08T04:17:38.835Z,3.85
2023-09-08T04:20:41.819Z,4.05
2023-09-08T04:23:45.123Z,4.53
2023-09-08T04:26:48.136Z,3.83
2023-09-08T04:29:51.551Z,3.60
2023-09-08T04:32:54.557Z,4.10
2023-09-08T04:35:57.795Z,3.67
2023-09-08T04:39:01.286Z,4.28
2023-09-08T04:42:05.091Z,4.30
2023-09-08T04:45:08.713Z,3.97
2023-09-08T04:48:12.362Z,4.30
2023-09-08T04:51:15.348Z,4.22
2023-09-08T04:54:18.647Z,4.37
2023-09-08T05:00:27.722Z,4.07
2023-09-08T05:03:32.879Z,4.03
2023-09-08T05:06:36.341Z,3.87
2023-09-08T05:09:39.881Z,4.30
2023-09-08T05:12:43.880Z,4.05
2023-09-08T05:15:49.800Z,3.92
2023-09-08T05:18:53.275Z,3.83
2023-09-08T05:21:56.768Z,3.50
2023-09-08T05:25:00.178Z,4.47
2023-09-08T05:28:03.505Z,3.92
2023-09-08T05:31:06.814Z,3.85
2023-09-08T05:34:11.348Z,3.78
2023-09-08T05:37:14.734Z,4.95
2023-09-08T05:43:26.185Z,4.03
2023-09-08T05:46:30.520Z,4.05
2023-09-08T05:49:37.021Z,3.97
2023-09-08T05:52:40.744Z,3.90
2023-09-08T05:55:44.168Z,3.72
2023-09-08T05:58:47.258Z,3.90
2023-09-08T06:01:50.573Z,4.15
2023-09-08T06:04:54.293Z,4.22
2023-09-08T06:08:07.107Z,4.25
2023-09-08T06:11:11.348Z,4.57
2023-09-08T06:17:19.733Z,4.07
2023-09-08T06:20:23.482Z,4.10
2023-09-08T06:23:26.571Z,3.80
2023-09-08T06:26:29.492Z,3.83
2023-09-08T06:29:33.648Z,4.10
2023-09-08T06:32:37.340Z,4.25
2023-09-08T06:35:40.681Z,4.35
2023-09-08T06:38:43.528Z,3.67
2023-09-08T06:41:46.620Z,4.20
2023-09-08T06:44:50.530Z,4.20
2023-09-08T06:47:56.266Z,3.80
2023-09-08T06:51:00.260Z,4.45
2023-09-08T06:54:04.504Z,3.75
2023-09-08T06:57:08.404Z,4.05
2023-09-08T07:00:12.754Z,3.78
2023-09-08T07:03:15.909Z,3.62
2023-09-08T07:06:19.510Z,3.50
2023-09-08T07:09:22.949Z,4.18
2023-09-08T07:12:26.310Z,3.40
2023-09-08T07:18:36.188Z,3.65
2023-09-08T07:21:39.336Z,4.20
2023-09-08T07:24:42.772Z,3.65
2023-09-08T07:27:47.960Z,3.92
2023-09-08T07:30:51.266Z,3.50
2023-09-08T07:33:54.284Z,3.55
2023-09-08T07:36:58.071Z,4.05
2023-09-08T07:40:01.105Z,4.45
2023-09-08T07:43:07.166Z,3.95
2023-09-08T07:46:10.511Z,4.10
2023-09-08T07:49:15.604Z,4.28
2023-09-08T07:52:21.026Z,3.78
2023-09-08T07:55:24.748Z,3.33
2023-09-08T07:58:27.637Z,4.07
2023-09-08T08:01:30.845Z,4.53
2023-09-08T08:04:33.887Z,4.30
2023-09-08T08:10:42.428Z,3.83
2023-09-08T08:14:05.350Z,3.95
2023-09-08T08:17:08.401Z,4.28
2023-09-08T08:20:18.410Z,3.60
2023-09-08T08:23:21.965Z,4.15
2023-09-08T08:26:28.710Z,3.60
2023-09-08T08:29:32.400Z,4.97
2023-09-08T08:32:35.742Z,4.37
2023-09-08T08:35:39.007Z,4.25
2023-09-08T08:38:41.928Z,3.67
2023-09-08T08:41:44.853Z,4.22
2023-09-08T08:44:47.817Z,3.47
2023-09-08T08:47:51.411Z,4.05
2023-09-08T08:50:54.542Z,3.97
2023-09-08T08:53:58.575Z,4.22
2023-09-08T08:57:02.064Z,4.25
2023-09-08T09:00:11.527Z,4.10
2023-09-08T09:03:16.186Z,4.00
2023-09-08T09:06:38.268Z,3.95
2023-09-08T09:09:41.466Z,3.72
2023-09-08T09:12:44.740Z,4.00
2023-09-08T09:15:50.333Z,3.72
2023-09-08T09:19:02.711Z,3.95
2023-09-08T09:22:05.426Z,4.30
2023-09-08T09:25:09.071Z,3.72
2023-09-08T09:28:12.258Z,3.62
2023-09-08T09:31:15.410Z,4.22
2023-09-08T09:34:20.573Z,3.53
2023-09-08T09:37:23.876Z,3.40
2023-09-08T09:40:29.605Z,3.25
2023-09-08T09:43:32.605Z,3.97
2023-09-08T09:46:35.827Z,3.87
2023-09-08T09:49:47.109Z,3.78
2023-09-08T09:52:50.104Z,3.67
2023-09-08T09:55:53.665Z,4.53
2023-09-08T09:58:56.963Z,3.35
2023-09-08T10:02:00.851Z,3.60
2023-09-08T10:05:13.903Z,3.35
2023-09-08T10:08:16.977Z,3.45
2023-09-08T10:11:23.462Z,3.42
2023-09-08T10:14:29.778Z,3.80
2023-09-08T10:17:35.733Z,3.58
2023-09-08T10:20:40.612Z,3.70
2023-09-08T10:23:52.187Z,3.58
2023-09-08T10:27:12.230Z,4.00
2023-09-08T10:30:16.119Z,3.28
2023-09-08T10:33:20.493Z,3.33
2023-09-08T10:36:27.222Z,3.35
2023-09-08T10:39:39.163Z,3.15
2023-09-08T10:42:45.098Z,3.20
2023-09-08T10:45:48.704Z,2.78
2023-09-08T10:48:54.927Z,3.85
2023-09-08T10:52:10.311Z,3.28
2023-09-08T10:55:14.147Z,3.45
2023-09-08T10:58:37.353Z,3.72
2023-09-08T11:01:42.696Z,2.85
2023-09-08T11:04:46.784Z,3.40
2023-09-08T11:07:53.955Z,3.08
2023-09-08T11:10:57.569Z,3.30
2023-09-08T11:14:02.421Z,2.83
2023-09-08T11:17:05.649Z,2.70
2023-09-08T11:20:11.694Z,2.70
2023-09-08T11:23:14.893Z,2.60
2023-09-08T11:26:17.957Z,2.60
2023-09-08T11:29:20.619Z,2.80
2023-09-08T11:32:23.936Z,2.78
2023-09-08T11:35:28.332Z,2.62
2023-09-08T11:38:32.780Z,2.90
2023-09-08T11:41:38.933Z,2.85
2023-09-08T11:44:44.142Z,2.62
2023-09-08T11:47:46.900Z,2.70
2023-09-08T11:50:49.961Z,2.60
2023-09-08T11:53:53.837Z,2.85
2023-09-08T11:56:57.205Z,2.35
2023-09-08T12:00:01.976Z,2.90
2023-09-08T12:03:15.948Z,2.78
2023-09-08T12:06:19.266Z,3.28
2023-09-08T12:09:22.907Z,2.83
2023-09-08T12:12:28.022Z,2.53
2023-09-08T12:15:38.741Z,3.22
2023-09-08T12:18:41.957Z,2.80
2023-09-08T12:22:00.641Z,2.50
2023-09-08T12:25:09.285Z,3.12
2023-09-08T12:28:12.116Z,2.72
2023-09-08T12:31:16.705Z,3.12
2023-09-08T12:34:19.755Z,2.58
2023-09-08T12:37:27.305Z,3.12
2023-09-08T12:40:31.717Z,3.03
2023-09-08T12:43:35.743Z,2.70
2023-09-08T12:46:38.683Z,2.50
2023-09-08T12:49:41.764Z,3.03
2023-09-08T12:52:45.015Z,3.33
2023-09-08T12:55:48.681Z,3.20
2023-09-08T12:58:51.452Z,2.95
2023-09-08T13:01:54.825Z,2.70
2023-09-08T13:04:59.004Z,2.55
2023-09-08T13:08:02.177Z,2.58
2023-09-08T13:11:04.987Z,2.80
2023-09-08T13:14:09.000Z,2.53
2023-09-08T13:17:14.614Z,2.17
2023-09-08T13:20:17.883Z,3.28
2023-09-08T13:23:20.572Z,2.87
2023-09-08T13:26:26.041Z,2.70
2023-09-08T13:29:29.354Z,2.70
2023-09-08T13:32:32.572Z,2.67
2023-09-08T13:35:35.343Z,2.95
2023-09-08T13:38:38.981Z,2.87
2023-09-08T13:41:52.340Z,2.83
2023-09-08T13:44:57.761Z,2.50
2023-09-08T13:48:00.943Z,2.85
2023-09-08T13:51:06.466Z,2.65
2023-09-08T13:54:12.825Z,2.58
2023-09-08T13:57:16.620Z,2.97
2023-09-08T14:00:24.922Z,3.05
2023-09-08T14:03:30.401Z,2.60
2023-09-08T14:06:40.208Z,2.67
2023-09-08T14:09:54.409Z,2.75
2023-09-08T14:12:58.787Z,2.80
2023-09-08T14:16:03.267Z,2.60
2023-09-08T14:19:06.353Z,2.55
2023-09-08T14:22:09.646Z,2.97
2023-09-08T14:25:12.746Z,2.60
2023-09-08T14:28:15.950Z,2.80
2023-09-08T14:31:18.579Z,2.55
2023-09-08T14:34:21.605Z,2.67
2023-09-08T14:37:24.769Z,2.78
2023-09-08T14:40:28.519Z,2.62
2023-09-08T14:43:31.302Z,2.62
2023-09-08T14:46:34.608Z,2.67
2023-09-08T14:49:37.299Z,2.80
2023-09-08T14:52:42.429Z,3.00
2023-09-08T14:55:45.904Z,2.95
2023-09-08T14:58:49.006Z,2.70
2023-09-08T15:01:55.023Z,2.67
2023-09-08T15:04:58.123Z,2.90
2023-09-08T15:08:01.955Z,2.80
2023-09-08T18:01:04.360Z,3.28
2023-09-08T18:04:08.331Z,3.90
2023-09-08T18:07:11.737Z,3.67
2023-09-08T18:10:15.557Z,3.10
2023-09-08T18:13:19.505Z,3.20
2023-09-08T18:16:25.710Z,3.47
